Time;durP1;ratioP1;P1;durP2;ratioP2;P2;SDS_P1;SDS_P2;PMS_P1;PMS_P2;Temp;Humidity;BMP_temperature;BMP_pressure;BME280_temperature;BME280_humidity;BME280_pressure;Samples;Min_cycle;Max_cycle;Signal;HPM_P1;HPM_P2
2021/04/25 00:00:40;;;;;;;16.05;8.68;;;12.30;67.80;;;;;;5065901;28;20899;-74
2021/04/25 00:03:07;;;;;;;14.00;8.32;;;12.30;67.80;;;;;;5067638;28;20450;-75
2021/04/25 00:05:33;;;;;;;14.73;8.50;;;12.20;67.90;;;;;;5073204;28;20917;-75
2021/04/25 00:08:01;;;;;;;13.00;8.38;;;12.20;67.70;;;;;;5073764;28;20804;-76
2021/04/25 00:10:27;;;;;;;15.23;8.90;;;12.20;67.70;;;;;;5072670;28;20425;-74
2021/04/25 00:12:54;;;;;;;15.73;8.70;;;12.20;67.60;;;;;;5067389;28;20442;-75
2021/04/25 00:15:22;;;;;;;16.90;8.77;;;12.20;67.50;;;;;;5074283;28;20541;-75
2021/04/25 00:17:49;;;;;;;13.85;7.97;;;12.10;67.60;;;;;;5072794;28;20918;-74
2021/04/25 00:20:16;;;;;;;12.32;7.63;;;12.10;67.80;;;;;;5069374;28;20423;-77
2021/04/25 00:22:44;;;;;;;13.43;7.68;;;12.10;68.00;;;;;;5074276;28;20423;-75
2021/04/25 00:25:13;;;;;;;13.87;7.67;;;12.10;68.10;;;;;;5069457;28;20419;-73
2021/04/25 00:27:40;;;;;;;13.07;7.65;;;12.10;68.10;;;;;;5075379;28;20937;-74
2021/04/25 00:30:09;;;;;;;12.97;7.53;;;12.10;68.40;;;;;;5069492;28;20435;-74
2021/04/25 00:32:36;;;;;;;13.77;7.70;;;12.10;68.60;;;;;;5068953;28;20920;-75
2021/04/25 00:35:03;;;;;;;11.10;7.17;;;12.10;69.00;;;;;;5067087;28;20425;-76
2021/04/25 00:37:29;;;;;;;13.73;7.65;;;12.10;69.40;;;;;;5070183;28;20426;-76
2021/04/25 00:39:56;;;;;;;15.20;8.00;;;12.20;69.70;;;;;;5068043;28;20431;-76
2021/04/25 00:42:23;;;;;;;14.75;7.80;;;12.20;69.60;;;;;;5065687;28;20529;-76
2021/04/25 00:44:51;;;;;;;12.15;7.28;;;12.20;69.40;;;;;;5073746;28;20944;-74
2021/04/25 00:47:17;;;;;;;16.60;7.50;;;12.20;69.20;;;;;;5066268;28;20485;-76
2021/04/25 00:49:43;;;;;;;14.55;7.07;;;12.20;69.00;;;;;;5071142;28;20431;-76
2021/04/25 00:52:10;;;;;;;12.20;6.85;;;12.20;68.90;;;;;;5065659;28;20433;-75
2021/04/25 00:54:39;;;;;;;12.03;6.90;;;12.20;68.80;;;;;;5077505;28;20422;-76
2021/04/25 00:57:07;;;;;;;11.87;6.50;;;12.20;68.80;;;;;;5067898;28;20439;-76
2021/04/25 00:59:34;;;;;;;12.57;6.60;;;12.20;68.80;;;;;;5064594;28;20459;-76
2021/04/25 01:02:00;;;;;;;10.48;5.90;;;12.20;68.40;;;;;;5074448;28;20423;-76
2021/04/25 01:04:27;;;;;;;11.70;6.10;;;12.20;68.20;;;;;;5067052;28;20427;-75
2021/04/25 01:06:53;;;;;;;10.82;5.80;;;12.20;68.00;;;;;;5067743;28;20472;-75
2021/04/25 01:09:20;;;;;;;10.88;6.13;;;12.20;68.00;;;;;;5069923;28;20417;-74
2021/04/25 01:11:46;;;;;;;11.32;5.78;;;12.20;68.20;;;;;;5070606;28;20423;-75
2021/04/25 01:14:13;;;;;;;11.20;5.78;;;12.20;68.30;;;;;;5074037;28;20429;-76
2021/04/25 01:16:40;;;;;;;10.50;5.60;;;12.10;67.70;;;;;;5063877;28;20911;-74
2021/04/25 01:19:06;;;;;;;10.88;5.85;;;12.20;67.80;;;;;;5075064;28;20421;-75
2021/04/25 01:21:34;;;;;;;10.68;5.60;;;12.20;67.70;;;;;;5073606;28;20470;-74
2021/04/25 01:24:00;;;;;;;9.68;6.00;;;12.20;67.80;;;;;;5074998;28;20423;-74
2021/04/25 01:26:26;;;;;;;9.23;5.93;;;12.20;67.60;;;;;;5069993;28;20430;-75
2021/04/25 01:28:54;;;;;;;11.35;5.80;;;12.20;67.80;;;;;;5065858;28;20419;-75
2021/04/25 01:31:20;;;;;;;10.63;5.68;;;12.20;67.80;;;;;;5067698;28;20427;-77
2021/04/25 01:33:46;;;;;;;16.70;6.38;;;12.20;67.70;;;;;;5071468;28;20423;-76
2021/04/25 01:36:14;;;;;;;12.75;5.93;;;12.20;67.20;;;;;;5068087;28;20899;-76
2021/04/25 01:38:42;;;;;;;10.32;5.63;;;12.20;66.80;;;;;;5063714;28;20450;-76
2021/04/25 01:41:08;;;;;;;8.63;5.00;;;12.20;66.50;;;;;;5069423;28;20427;-76
2021/04/25 01:43:35;;;;;;;7.82;4.88;;;12.20;66.30;;;;;;5064440;28;20425;-76
2021/04/25 01:46:01;;;;;;;10.98;5.22;;;12.20;65.90;;;;;;5066822;28;20430;-75
2021/04/25 01:48:27;;;;;;;8.73;4.73;;;12.20;65.80;;;;;;5070803;28;20439;-75
2021/04/25 01:50:54;;;;;;;9.03;5.13;;;12.20;66.00;;;;;;5068767;28;20427;-76
2021/04/25 01:53:20;;;;;;;8.32;5.20;;;12.20;65.00;;;;;;5070978;28;20436;-75
2021/04/25 01:55:47;;;;;;;10.23;5.13;;;12.10;64.70;;;;;;5076169;28;20427;-75
2021/04/25 01:58:16;;;;;;;9.95;5.20;;;12.10;64.30;;;;;;5068272;28;20423;-76
2021/04/25 02:00:44;;;;;;;9.90;5.28;;;12.10;64.30;;;;;;5073187;28;20429;-76
2021/04/25 02:03:13;;;;;;;10.65;5.22;;;12.00;64.40;;;;;;5075535;28;20953;-77
2021/04/25 02:05:40;;;;;;;9.43;5.30;;;12.00;64.40;;;;;;5074986;28;20756;-76
2021/04/25 02:08:08;;;;;;;12.65;5.57;;;11.90;64.40;;;;;;5071470;28;20487;-76
2021/04/25 02:10:35;;;;;;;9.45;5.20;;;11.90;64.30;;;;;;5069134;28;20429;-76
2021/04/25 02:13:03;;;;;;;12.02;5.03;;;11.90;64.30;;;;;;5069324;28;20787;-75
2021/04/25 02:15:29;;;;;;;9.50;4.70;;;11.90;64.20;;;;;;5069121;28;20530;-75
2021/04/25 02:17:56;;;;;;;10.00;4.50;;;11.90;63.90;;;;;;5069602;28;20976;-77
2021/04/25 02:20:23;;;;;;;8.03;4.33;;;11.90;63.90;;;;;;5074682;28;20419;-75
2021/04/25 02:22:50;;;;;;;9.90;4.70;;;11.90;63.80;;;;;;5069614;28;20816;-76
2021/04/25 02:25:18;;;;;;;8.43;4.53;;;11.80;63.80;;;;;;5071152;28;20423;-76
2021/04/25 02:27:44;;;;;;;8.13;4.68;;;11.90;63.90;;;;;;5075902;28;20435;-75
2021/04/25 02:30:14;;;;;;;7.28;4.13;;;11.90;63.60;;;;;;5069590;28;20432;-76
2021/04/25 02:32:40;;;;;;;8.48;4.70;;;11.90;63.50;;;;;;5075579;28;20439;-76
2021/04/25 02:35:09;;;;;;;8.50;4.38;;;11.90;63.10;;;;;;5071120;28;20470;-76
2021/04/25 02:37:38;;;;;;;7.70;4.30;;;11.90;63.00;;;;;;5068738;28;20821;-76
2021/04/25 02:40:05;;;;;;;9.23;4.25;;;11.90;63.00;;;;;;5069639;28;20424;-75
2021/04/25 02:42:32;;;;;;;8.13;4.60;;;12.00;62.90;;;;;;5075487;28;20416;-76
2021/04/25 02:44:58;;;;;;;9.38;4.35;;;12.00;63.00;;;;;;5068689;28;20453;-75
2021/04/25 02:47:26;;;;;;;10.37;4.60;;;11.90;63.20;;;;;;5068418;28;20455;-76
2021/04/25 02:49:53;;;;;;;10.85;4.55;;;11.90;63.30;;;;;;5073168;28;20446;-75
2021/04/25 02:52:19;;;;;;;11.10;4.82;;;11.90;63.30;;;;;;5067427;28;20427;-74
2021/04/25 02:54:45;;;;;;;9.35;5.18;;;11.90;63.60;;;;;;5076680;28;20915;-75
2021/04/25 02:57:12;;;;;;;11.75;4.95;;;11.90;63.90;;;;;;5078715;28;20457;-76
2021/04/25 02:59:38;;;;;;;13.95;5.63;;;11.90;64.20;;;;;;5071299;28;20485;-76
2021/04/25 03:02:04;;;;;;;12.07;5.47;;;11.90;64.50;;;;;;5073080;28;20435;-76
2021/04/25 03:04:32;;;;;;;12.00;5.50;;;11.90;64.70;;;;;;5068864;28;20760;-75
2021/04/25 03:06:58;;;;;;;11.07;5.40;;;11.90;64.80;;;;;;5079701;28;20429;-75
2021/04/25 03:09:24;;;;;;;12.30;5.10;;;11.90;64.90;;;;;;5073560;28;20437;-76
2021/04/25 03:11:51;;;;;;;11.10;4.95;;;11.90;65.20;;;;;;5068097;28;20449;-76
2021/04/25 03:14:17;;;;;;;10.40;5.20;;;11.90;65.30;;;;;;5069940;28;20439;-75
2021/04/25 03:16:44;;;;;;;11.02;5.20;;;11.90;65.30;;;;;;5071131;28;20434;-76
2021/04/25 03:19:10;;;;;;;10.82;4.57;;;11.90;64.50;;;;;;5068119;28;20489;-75
2021/04/25 03:21:37;;;;;;;8.10;4.10;;;11.90;64.30;;;;;;5069694;28;20434;-76
2021/04/25 03:24:05;;;;;;;11.70;4.30;;;11.80;64.00;;;;;;5066474;28;20447;-75
2021/04/25 03:26:31;;;;;;;9.95;4.50;;;11.80;64.20;;;;;;5074125;28;20934;-76
2021/04/25 03:28:57;;;;;;;10.10;4.97;;;11.80;64.30;;;;;;5071570;28;20427;-75
2021/04/25 03:31:24;;;;;;;10.45;4.60;;;11.80;64.70;;;;;;5070603;28;20443;-75
2021/04/25 03:33:50;;;;;;;14.52;5.35;;;11.70;65.20;;;;;;5070636;28;20483;-75
2021/04/25 03:36:17;;;;;;;12.55;5.18;;;11.70;65.20;;;;;;5079593;28;20514;-76
2021/04/25 03:38:44;;;;;;;12.77;4.85;;;11.70;65.70;;;;;;5069915;28;20427;-76
2021/04/25 03:41:10;;;;;;;9.15;4.40;;;11.70;65.80;;;;;;5075234;28;20772;-75
2021/04/25 03:43:37;;;;;;;9.30;4.10;;;11.70;64.80;;;;;;5066419;28;20411;-76
2021/04/25 03:46:03;;;;;;;10.73;4.07;;;11.80;63.70;;;;;;5078335;28;20457;-75
2021/04/25 03:48:29;;;;;;;11.00;3.83;;;11.80;62.20;;;;;;5071766;28;20578;-75
2021/04/25 03:50:56;;;;;;;11.50;3.97;;;11.70;60.20;;;;;;5081133;28;20429;-76
2021/04/25 03:53:22;;;;;;;7.20;3.80;;;11.70;59.80;;;;;;5070521;28;20431;-76
2021/04/25 03:55:50;;;;;;;9.88;3.88;;;11.60;60.00;;;;;;5071940;28;20518;-75
2021/04/25 03:58:16;;;;;;;9.85;4.00;;;11.60;59.90;;;;;;5066045;28;20461;-74
2021/04/25 04:00:42;;;;;;;8.75;3.70;;;11.60;60.00;;;;;;5069784;28;20424;-76
2021/04/25 04:03:09;;;;;;;11.50;3.88;;;11.50;59.60;;;;;;5071420;28;20414;-77
2021/04/25 04:05:35;;;;;;;9.43;3.90;;;11.50;59.40;;;;;;5068328;28;20432;-76
2021/04/25 04:08:02;;;;;;;10.93;3.77;;;11.50;58.90;;;;;;5072345;28;20786;-75
2021/04/25 04:10:28;;;;;;;9.10;3.75;;;11.50;59.10;;;;;;5073779;28;20433;-75
2021/04/25 04:12:55;;;;;;;9.30;3.97;;;11.40;59.40;;;;;;5072247;28;20967;-75
2021/04/25 04:15:22;;;;;;;11.90;3.95;;;11.30;59.40;;;;;;5070386;28;20432;-76
2021/04/25 04:17:48;;;;;;;11.55;3.85;;;11.20;59.50;;;;;;5075569;28;20455;-75
2021/04/25 04:20:15;;;;;;;10.15;3.65;;;11.20;60.00;;;;;;5071489;28;20429;-75
2021/04/25 04:22:42;;;;;;;8.80;3.70;;;11.20;60.10;;;;;;5068228;28;20433;-76
2021/04/25 04:25:09;;;;;;;10.35;3.72;;;11.20;60.00;;;;;;5068853;28;20423;-76
2021/04/25 04:27:36;;;;;;;9.23;3.72;;;11.10;60.00;;;;;;5074030;28;20429;-75
2021/04/25 04:30:04;;;;;;;11.60;4.05;;;11.10;60.30;;;;;;5068169;28;20427;-75
2021/04/25 04:32:31;;;;;;;9.32;3.70;;;11.20;60.30;;;;;;5066812;28;20505;-75
2021/04/25 04:34:57;;;;;;;9.63;3.75;;;11.20;60.20;;;;;;5072563;28;20429;-76
2021/04/25 04:37:23;;;;;;;12.45;3.80;;;11.20;60.20;;;;;;5070449;28;20478;-76
2021/04/25 04:39:50;;;;;;;9.80;3.60;;;11.20;60.30;;;;;;5072336;28;20431;-75
2021/04/25 04:42:16;;;;;;;9.30;3.78;;;11.20;60.20;;;;;;5069394;28;20438;-75
2021/04/25 04:44:43;;;;;;;11.98;4.20;;;11.20;60.50;;;;;;5066298;28;20485;-75
2021/04/25 04:47:10;;;;;;;10.88;4.00;;;11.20;60.60;;;;;;5067091;28;20419;-75
2021/04/25 04:49:36;;;;;;;9.57;3.70;;;11.20;60.60;;;;;;5069236;28;20558;-76
2021/04/25 04:52:03;;;;;;;12.77;3.78;;;11.20;60.80;;;;;;5069486;28;20466;-73
2021/04/25 04:54:30;;;;;;;12.93;3.87;;;11.20;60.90;;;;;;5072420;28;20423;-75
2021/04/25 04:56:56;;;;;;;8.82;3.65;;;11.30;61.10;;;;;;5068707;28;20424;-75
2021/04/25 04:59:23;;;;;;;10.15;3.58;;;11.30;61.40;;;;;;5066919;28;20911;-75
2021/04/25 05:01:49;;;;;;;11.68;3.97;;;11.30;61.50;;;;;;5070168;28;20498;-75
2021/04/25 05:04:16;;;;;;;8.88;3.72;;;11.20;61.40;;;;;;5065400;28;20431;-76
2021/04/25 05:06:43;;;;;;;12.55;4.07;;;11.20;61.90;;;;;;5068481;28;21078;-74
2021/04/25 05:09:09;;;;;;;11.57;4.30;;;11.20;62.10;;;;;;5065987;28;20490;-75
2021/04/25 05:11:36;;;;;;;10.97;3.83;;;11.30;62.30;;;;;;5069009;28;20440;-76
2021/04/25 05:14:02;;;;;;;10.73;3.97;;;11.30;61.60;;;;;;5067216;28;20467;-76
2021/04/25 05:16:29;;;;;;;8.23;3.90;;;11.30;61.10;;;;;;5069483;28;20921;-76
2021/04/25 05:18:55;;;;;;;8.73;4.03;;;11.30;61.30;;;;;;5071174;28;20966;-76
2021/04/25 05:21:22;;;;;;;9.75;3.90;;;11.30;61.50;;;;;;5065650;28;20426;-76
2021/04/25 05:23:49;;;;;;;11.23;3.55;;;11.40;61.30;;;;;;5066340;28;20442;-75
2021/04/25 05:26:15;;;;;;;10.35;3.30;;;11.30;60.20;;;;;;5069145;28;20425;-75
2021/04/25 05:28:42;;;;;;;10.43;3.25;;;11.30;59.30;;;;;;5070541;28;20430;-73
2021/04/25 05:31:08;;;;;;;11.68;3.10;;;11.30;58.90;;;;;;5065444;28;20438;-75
2021/04/25 05:33:34;;;;;;;12.63;4.47;;;11.20;58.80;;;;;;5077256;28;20436;-74
2021/04/25 05:36:01;;;;;;;9.98;3.25;;;11.20;59.00;;;;;;5065614;28;20442;-75
2021/04/25 05:38:28;;;;;;;10.50;3.20;;;11.20;59.20;;;;;;5074436;28;20747;-74
2021/04/25 05:40:55;;;;;;;11.10;3.47;;;11.20;59.50;;;;;;5067191;28;20792;-74
2021/04/25 05:43:21;;;;;;;14.83;3.57;;;11.20;59.30;;;;;;5070324;28;20438;-75
2021/04/25 05:45:47;;;;;;;8.82;2.80;;;11.20;59.30;;;;;;5064734;28;20441;-74
2021/04/25 05:48:14;;;;;;;9.45;2.83;;;11.20;59.30;;;;;;5071980;28;20907;-75
2021/04/25 05:50:40;;;;;;;11.18;3.17;;;11.20;59.30;;;;;;5069671;28;21077;-75
2021/04/25 05:53:07;;;;;;;14.10;3.38;;;11.20;59.50;;;;;;5065094;28;20783;-73
2021/04/25 05:55:34;;;;;;;8.80;3.10;;;11.30;59.80;;;;;;5061757;28;20446;-73
2021/04/25 05:58:01;;;;;;;11.15;2.95;;;11.20;60.10;;;;;;5067184;28;21020;-74
2021/04/25 06:00:30;;;;;;;9.73;2.80;;;11.20;60.50;;;;;;5070364;28;20909;-75
2021/04/25 06:02:56;;;;;;;8.90;2.63;;;11.20;60.00;;;;;;5071574;28;20459;-73
2021/04/25 06:05:23;;;;;;;7.50;2.15;;;11.20;60.10;;;;;;5064406;28;20435;-74
2021/04/25 06:07:50;;;;;;;10.80;2.30;;;11.20;59.80;;;;;;5068784;28;20433;-75
2021/04/25 06:10:18;;;;;;;13.43;2.10;;;11.20;59.90;;;;;;5068482;28;20487;-75
2021/04/25 06:12:48;;;;;;;10.65;2.20;;;11.20;59.60;;;;;;5073305;28;20426;-74
2021/04/25 06:15:15;;;;;;;9.98;2.30;;;11.30;59.60;;;;;;5065496;28;20420;-73
2021/04/25 06:17:42;;;;;;;10.13;2.20;;;11.30;59.80;;;;;;5065851;28;20889;-74
2021/04/25 06:20:09;;;;;;;9.82;2.05;;;11.40;59.70;;;;;;5066282;28;20423;-74
2021/04/25 06:22:36;;;;;;;8.35;2.05;;;11.40;59.70;;;;;;5067099;28;20982;-72
2021/04/25 06:25:03;;;;;;;11.45;2.35;;;11.40;59.70;;;;;;5062875;28;20502;-74
2021/04/25 06:27:29;;;;;;;7.13;2.30;;;11.40;59.50;;;;;;5062208;28;20481;-73
2021/04/25 06:29:56;;;;;;;10.98;2.17;;;11.50;59.60;;;;;;5066275;28;20420;-73
2021/04/25 06:32:23;;;;;;;9.60;2.17;;;11.40;59.80;;;;;;5068291;28;20437;-73
2021/04/25 06:34:49;;;;;;;10.48;2.20;;;11.40;60.00;;;;;;5069294;28;20598;-73
2021/04/25 06:37:15;;;;;;;8.38;2.08;;;11.50;60.20;;;;;;5068885;28;20417;-75
2021/04/25 06:39:42;;;;;;;9.60;2.17;;;11.50;60.20;;;;;;5066189;28;20428;-74
2021/04/25 06:42:09;;;;;;;8.45;2.20;;;11.50;61.00;;;;;;5070399;28;20426;-74
2021/04/25 06:44:36;;;;;;;10.02;2.20;;;11.50;60.10;;;;;;5069427;28;20421;-76
2021/04/25 06:47:03;;;;;;;11.38;2.40;;;11.60;60.00;;;;;;5070812;28;20437;-74
2021/04/25 06:49:30;;;;;;;8.45;2.30;;;11.60;60.00;;;;;;5067836;28;20429;-74
2021/04/25 06:51:56;;;;;;;8.93;2.20;;;11.60;60.00;;;;;;5075714;28;20482;-73
2021/04/25 06:54:24;;;;;;;15.07;2.42;;;11.70;60.10;;;;;;5076996;28;20464;-74
2021/04/25 06:56:50;;;;;;;12.23;2.40;;;11.70;60.30;;;;;;5072463;28;20413;-72
2021/04/25 06:59:16;;;;;;;10.00;2.30;;;11.70;60.50;;;;;;5070610;28;20478;-72
2021/04/25 07:01:43;;;;;;;13.43;2.30;;;11.70;60.50;;;;;;5072768;28;20419;-73
2021/04/25 07:04:10;;;;;;;13.15;2.38;;;11.70;60.60;;;;;;5070758;28;20485;-74
2021/04/25 07:06:36;;;;;;;9.57;2.30;;;11.70;60.70;;;;;;5064106;28;21317;-74
2021/04/25 07:09:04;;;;;;;9.98;2.50;;;11.70;60.50;;;;;;5073101;28;20423;-72
2021/04/25 07:11:30;;;;;;;9.85;2.25;;;11.80;60.90;;;;;;5072070;28;20832;-75
2021/04/25 07:13:57;;;;;;;11.37;2.83;;;11.80;60.80;;;;;;5072427;28;20444;-74
2021/04/25 07:16:24;;;;;;;9.38;2.38;;;11.80;60.90;;;;;;5073689;28;20751;-72
2021/04/25 07:18:50;;;;;;;11.40;2.40;;;11.80;61.40;;;;;;5067491;28;20425;-72
2021/04/25 07:21:17;;;;;;;11.20;2.60;;;11.80;61.40;;;;;;5070261;28;20902;-72
2021/04/25 07:23:44;;;;;;;12.65;2.90;;;11.80;61.70;;;;;;5075454;28;20421;-72
2021/04/25 07:26:12;;;;;;;10.77;2.50;;;11.80;62.10;;;;;;5069417;28;20895;-72
2021/04/25 07:28:38;;;;;;;11.25;3.05;;;11.80;62.10;;;;;;5067875;28;20427;-75
2021/04/25 07:31:05;;;;;;;11.43;2.10;;;11.80;62.20;;;;;;5073783;28;20419;-74
2021/04/25 07:33:32;;;;;;;9.45;2.28;;;11.70;60.50;;;;;;5075708;28;20424;-76
2021/04/25 07:35:59;;;;;;;10.73;2.40;;;11.70;60.00;;;;;;5074859;28;20533;-74
2021/04/25 07:38:26;;;;;;;11.65;2.10;;;11.70;59.20;;;;;;5072841;28;20423;-74
2021/04/25 07:40:53;;;;;;;7.88;1.90;;;11.70;59.00;;;;;;5064264;28;20424;-72
2021/04/25 07:43:19;;;;;;;10.85;2.03;;;11.70;59.00;;;;;;5077928;28;20425;-75
2021/04/25 07:45:45;;;;;;;10.02;2.80;;;11.70;59.00;;;;;;5072388;28;20412;-76
2021/04/25 07:48:12;;;;;;;8.60;2.40;;;11.80;58.90;;;;;;5070623;28;20421;-74
2021/04/25 07:50:38;;;;;;;7.63;1.85;;;11.80;58.90;;;;;;5069381;28;20509;-73
2021/04/25 07:53:05;;;;;;;8.10;2.30;;;11.80;58.60;;;;;;5063265;28;20427;-74
2021/04/25 07:55:32;;;;;;;9.95;2.03;;;11.80;58.80;;;;;;5070816;28;20426;-72
2021/04/25 07:57:59;;;;;;;5.87;1.80;;;11.90;58.70;;;;;;5072592;28;20420;-74
2021/04/25 08:00:25;;;;;;;8.80;2.10;;;12.00;57.90;;;;;;5076114;28;20914;-74
2021/04/25 08:02:51;;;;;;;9.50;1.95;;;12.10;57.60;;;;;;5072298;28;20431;-74
2021/04/25 08:05:18;;;;;;;8.52;1.90;;;12.20;56.80;;;;;;5070774;28;20442;-75
2021/04/25 08:07:45;;;;;;;9.30;2.38;;;12.20;55.90;;;;;;5075203;28;20453;-73
2021/04/25 08:10:12;;;;;;;8.00;1.95;;;12.30;55.80;;;;;;5074494;28;20430;-75
2021/04/25 08:12:40;;;;;;;10.13;1.90;;;12.30;55.20;;;;;;5070274;28;20519;-74
2021/04/25 08:15:07;;;;;;;9.70;1.92;;;12.40;55.00;;;;;;5065883;28;20975;-73
2021/04/25 08:17:33;;;;;;;9.23;1.73;;;12.40;54.90;;;;;;5070346;28;20431;-75
2021/04/25 08:20:00;;;;;;;7.60;1.73;;;12.40;54.90;;;;;;5070976;28;20480;-74
2021/04/25 08:22:26;;;;;;;6.93;1.83;;;12.40;55.20;;;;;;5070989;28;20775;-76
2021/04/25 08:24:53;;;;;;;9.33;2.00;;;12.40;55.40;;;;;;5070724;28;20477;-75
2021/04/25 08:27:19;;;;;;;7.63;1.97;;;12.40;55.60;;;;;;5073487;28;20510;-75
2021/04/25 08:29:46;;;;;;;8.23;1.80;;;12.40;55.30;;;;;;5068595;28;20484;-75
2021/04/25 08:32:13;;;;;;;8.93;1.90;;;12.50;56.00;;;;;;5072445;28;20861;-73
2021/04/25 08:34:39;;;;;;;9.52;1.90;;;12.50;55.50;;;;;;5069138;28;20485;-74
2021/04/25 08:37:05;;;;;;;10.88;1.98;;;12.40;55.60;;;;;;5067416;28;20826;-76
2021/04/25 08:39:32;;;;;;;8.48;1.83;;;12.40;55.90;;;;;;5066533;28;20482;-74
2021/04/25 08:41:58;;;;;;;9.30;2.00;;;12.40;56.20;;;;;;5068214;28;20424;-75
2021/04/25 08:44:25;;;;;;;10.15;2.22;;;12.50;56.40;;;;;;5065243;28;20413;-74
2021/04/25 08:46:54;;;;;;;9.88;2.08;;;12.50;56.50;;;;;;5068846;28;20431;-75
2021/04/25 08:49:25;;;;;;;7.82;1.90;;;12.50;56.40;;;;;;5063694;28;20446;-78
2021/04/25 08:51:52;;;;;;;9.68;2.10;;;12.50;56.60;;;;;;5070855;28;20423;-74
2021/04/25 08:54:22;;;;;;;6.15;1.98;;;12.60;56.90;;;;;;5063612;28;20436;-76
2021/04/25 08:56:49;;;;;;;8.75;1.90;;;12.60;56.20;;;;;;5068282;28;20435;-76
2021/04/25 08:59:16;;;;;;;11.47;2.00;;;12.60;56.60;;;;;;5068613;28;20940;-74
2021/04/25 09:01:43;;;;;;;9.60;2.03;;;12.70;56.80;;;;;;5068053;28;20432;-78
2021/04/25 09:04:10;;;;;;;7.95;2.20;;;12.70;56.30;;;;;;5066602;28;20934;-75
2021/04/25 09:06:55;;;;;;;7.78;1.95;;;12.70;56.40;;;;;;5068278;28;20566;-74
2021/04/25 09:09:21;;;;;;;13.10;2.25;;;12.70;56.80;;;;;;5067165;28;20424;-74
2021/04/25 09:11:49;;;;;;;8.35;2.10;;;12.80;56.90;;;;;;5067853;28;20457;-75
2021/04/25 09:14:21;;;;;;;9.38;2.45;;;12.80;56.30;;;;;;5072684;28;20439;-73
2021/04/25 09:16:59;;;;;;;10.15;2.38;;;12.80;56.60;;;;;;5069404;28;22273;-75
2021/04/25 09:19:47;;;;;;;7.93;1.88;;;12.80;56.50;;;;;;5065793;28;20427;-75
2021/04/25 09:22:14;;;;;;;11.18;2.20;;;12.80;56.30;;;;;;5069122;28;20438;-74
2021/04/25 09:24:40;;;;;;;12.20;2.35;;;12.80;56.50;;;;;;5066664;28;20454;-74
2021/04/25 09:27:07;;;;;;;8.57;2.03;;;12.90;56.70;;;;;;5068856;28;20432;-74
2021/04/25 09:29:48;;;;;;;10.23;2.15;;;12.90;56.90;;;;;;5071840;28;20442;-74
2021/04/25 09:32:19;;;;;;;10.57;2.00;;;12.90;56.90;;;;;;5070628;28;20423;-73
2021/04/25 09:34:47;;;;;;;9.60;1.98;;;12.80;57.20;;;;;;5074963;28;20829;-74
2021/04/25 09:37:15;;;;;;;9.60;2.13;;;12.90;57.50;;;;;;5068329;28;22302;-74
2021/04/25 09:40:02;;;;;;;10.27;2.40;;;12.90;57.80;;;;;;5069380;28;20453;-74
2021/04/25 09:42:30;;;;;;;12.52;2.20;;;13.00;58.40;;;;;;5068695;28;20427;-73
2021/04/25 09:44:56;;;;;;;11.60;2.50;;;13.00;59.40;;;;;;5072796;28;20426;-75
2021/04/25 09:47:35;;;;;;;10.18;2.20;;;13.00;60.00;;;;;;5071740;28;20484;-75
2021/04/25 09:50:03;;;;;;;10.38;2.40;;;13.00;60.10;;;;;;5072508;28;20506;-75
2021/04/25 09:52:36;;;;;;;13.48;2.30;;;13.00;59.80;;;;;;5064751;28;20446;-74
2021/04/25 09:55:15;;;;;;;8.05;2.47;;;13.00;59.80;;;;;;5068874;28;20840;-74
2021/04/25 09:57:42;;;;;;;8.15;2.25;;;13.10;58.80;;;;;;5065123;28;20757;-74
2021/04/25 10:00:10;;;;;;;7.68;1.95;;;13.20;58.20;;;;;;5074224;28;20939;-74
2021/04/25 10:02:54;;;;;;;8.25;1.85;;;13.20;56.80;;;;;;5069508;28;20467;-74
2021/04/25 10:05:22;;;;;;;9.33;2.10;;;13.30;54.90;;;;;;5069127;28;20429;-73
2021/04/25 10:07:48;;;;;;;6.80;1.70;;;13.40;54.00;;;;;;5071590;28;20438;-76
2021/04/25 10:10:16;;;;;;;4.85;1.60;;;13.40;53.30;;;;;;5072618;28;20423;-74
2021/04/25 10:12:42;;;;;;;5.22;1.50;;;13.40;52.40;;;;;;5069155;28;20427;-75
2021/04/25 10:15:10;;;;;;;8.13;1.80;;;13.40;52.20;;;;;;5074952;28;20435;-74
2021/04/25 10:17:40;;;;;;;7.07;1.80;;;13.50;52.30;;;;;;5074602;28;20427;-75
2021/04/25 10:20:08;;;;;;;6.82;2.10;;;13.50;52.30;;;;;;5075356;28;20433;-75
2021/04/25 10:22:38;;;;;;;8.27;2.05;;;13.60;52.70;;;;;;5072276;28;20431;-73
2021/04/25 10:25:05;;;;;;;6.47;1.90;;;13.70;52.60;;;;;;5069539;28;20896;-75
2021/04/25 10:27:32;;;;;;;9.65;2.60;;;13.80;52.10;;;;;;5076840;28;20469;-75
2021/04/25 10:30:04;;;;;;;9.65;2.30;;;13.90;51.70;;;;;;5074788;28;20425;-74
2021/04/25 10:32:31;;;;;;;8.33;2.50;;;14.00;51.50;;;;;;5079176;28;20427;-75
2021/04/25 10:35:18;;;;;;;10.05;2.55;;;14.00;51.90;;;;;;5068626;28;20431;-75
2021/04/25 10:37:46;;;;;;;7.95;2.17;;;14.00;51.90;;;;;;5075752;28;20434;-75
2021/04/25 10:40:20;;;;;;;8.73;1.90;;;14.10;52.10;;;;;;5071053;28;20423;-74
2021/04/25 10:42:55;;;;;;;7.18;1.70;;;14.10;51.70;;;;;;5075881;28;20442;-75
2021/04/25 10:45:31;;;;;;;6.72;1.70;;;14.00;51.60;;;;;;5073446;28;20421;-75
2021/04/25 10:48:30;;;;;;;10.55;2.40;;;14.10;51.30;;;;;;5072077;28;20607;-77
2021/04/25 10:51:03;;;;;;;8.32;1.77;;;14.10;51.20;;;;;;5065023;28;20419;-75
2021/04/25 10:53:34;;;;;;;7.75;1.80;;;14.20;50.00;;;;;;5069113;28;20454;-74
2021/04/25 10:56:33;;;;;;;6.27;1.70;;;14.20;49.50;;;;;;5070548;28;20865;-74
2021/04/25 10:59:26;;;;;;;6.53;1.80;;;14.20;49.10;;;;;;5057349;28;21011;-76
2021/04/25 11:01:53;;;;;;;5.40;1.60;;;14.20;48.30;;;;;;5067251;28;20855;-73
2021/04/25 11:04:59;;;;;;;5.93;1.98;;;14.20;48.20;;;;;;5072340;28;20423;-74
2021/04/25 11:07:37;;;;;;;6.03;1.63;;;14.30;47.90;;;;;;5069615;28;20427;-75
2021/04/25 11:10:05;;;;;;;3.92;1.55;;;14.50;47.50;;;;;;5070305;28;20907;-75
2021/04/25 11:12:39;;;;;;;5.30;1.60;;;14.60;47.50;;;;;;5067843;28;20463;-74
2021/04/25 11:15:07;;;;;;;3.40;1.50;;;14.70;46.80;;;;;;5069142;28;20803;-74
2021/04/25 11:17:34;;;;;;;4.20;1.70;;;14.70;46.40;;;;;;5071859;28;20438;-73
2021/04/25 11:20:20;;;;;;;4.50;1.63;;;14.80;46.60;;;;;;5070290;28;20426;-73
2021/04/25 11:22:46;;;;;;;5.85;1.98;;;14.80;47.00;;;;;;5069640;28;20764;-75
2021/04/25 11:25:41;;;;;;;6.18;1.60;;;14.90;47.80;;;;;;5076520;28;20428;-74
2021/04/25 11:28:51;;;;;;;5.85;1.60;;;15.00;46.60;;;;;;5064583;28;20432;-73
2021/04/25 11:31:48;;;;;;;4.75;1.60;;;15.00;46.20;;;;;;5065656;28;20934;-73
2021/04/25 11:35:12;;;;;;;4.78;1.60;;;15.10;46.80;;;;;;5070790;28;20431;-72
2021/04/25 11:37:41;;;;;;;6.25;1.67;;;15.20;46.00;;;;;;5069412;28;20427;-73
2021/04/25 11:40:10;;;;;;;5.47;1.50;;;15.20;45.90;;;;;;5081519;28;20507;-73
2021/04/25 11:42:44;;;;;;;5.30;1.27;;;15.30;45.60;;;;;;5068345;28;20419;-73
2021/04/25 11:45:13;;;;;;;5.97;1.60;;;15.30;46.00;;;;;;5079875;28;20459;-73
2021/04/25 11:47:46;;;;;;;5.25;1.70;;;15.40;46.20;;;;;;5085388;28;20406;-74
2021/04/25 11:50:14;;;;;;;4.85;1.70;;;15.40;46.70;;;;;;5074819;28;20499;-74
2021/04/25 11:52:41;;;;;;;6.18;1.67;;;15.40;47.00;;;;;;5080749;28;20423;-74
2021/04/25 11:55:10;;;;;;;7.32;2.00;;;15.40;47.00;;;;;;5076426;28;20513;-73
2021/04/25 11:57:38;;;;;;;6.03;1.77;;;15.50;47.00;;;;;;5078609;28;20907;-73
2021/04/25 12:00:08;;;;;;;4.63;1.48;;;15.50;46.70;;;;;;5072467;28;20407;-74
2021/04/25 12:02:36;;;;;;;7.18;2.22;;;15.40;46.80;;;;;;5078857;28;20427;-73
2021/04/25 12:05:06;;;;;;;6.43;1.63;;;15.40;46.90;;;;;;5069727;28;20481;-73
2021/04/25 12:07:35;;;;;;;7.03;1.98;;;15.40;46.50;;;;;;5074149;28;20415;-75
2021/04/25 12:10:07;;;;;;;6.63;1.73;;;15.40;46.60;;;;;;5069667;28;20918;-72
2021/04/25 12:12:34;;;;;;;5.38;1.70;;;15.40;46.50;;;;;;5073417;28;20757;-72
2021/04/25 12:15:04;;;;;;;7.10;1.70;;;15.50;46.50;;;;;;5079228;28;21036;-75
2021/04/25 12:17:31;;;;;;;5.90;1.70;;;15.50;46.00;;;;;;5081085;28;20421;-75
2021/04/25 12:19:59;;;;;;;7.95;2.00;;;15.50;46.10;;;;;;5080802;28;21148;-73
2021/04/25 12:22:26;;;;;;;7.82;1.90;;;15.50;47.00;;;;;;5086604;28;20445;-76
2021/04/25 12:24:56;;;;;;;7.05;1.90;;;15.50;47.90;;;;;;5083219;28;20769;-74
2021/04/25 12:27:23;;;;;;;8.00;2.00;;;15.40;48.60;;;;;;5076148;28;20857;-74
2021/04/25 12:29:50;;;;;;;9.30;1.90;;;15.40;49.60;;;;;;5075524;28;20420;-74
2021/04/25 12:32:21;;;;;;;5.87;1.90;;;15.50;48.90;;;;;;5078205;28;20424;-75
2021/04/25 12:34:57;;;;;;;5.90;2.00;;;15.60;47.70;;;;;;5076359;28;20489;-76
2021/04/25 12:37:38;;;;;;;8.02;2.60;;;15.70;48.20;;;;;;5073734;28;20429;-72
2021/04/25 12:40:06;;;;;;;7.40;2.30;;;15.90;47.10;;;;;;5080540;28;20414;-73
2021/04/25 12:42:33;;;;;;;6.75;2.35;;;16.00;46.80;;;;;;5072765;28;20440;-75
2021/04/25 12:44:59;;;;;;;7.77;2.20;;;16.10;46.90;;;;;;5082515;28;20756;-73
2021/04/25 12:47:32;;;;;;;6.33;2.00;;;16.20;46.90;;;;;;5067517;28;20411;-73
2021/04/25 12:50:13;;;;;;;4.55;1.70;;;16.20;47.20;;;;;;5079365;28;20777;-73